createdAt,value
2023-09-08T00:00:10.358Z,10.30
2023-09-08T00:02:37.551Z,8.68
2023-09-08T00:05:04.912Z,10.32
2023-09-08T00:07:32.031Z,9.60
2023-09-08T00:09:59.141Z,11.02
2023-09-08T00:12:26.361Z,10.00
2023-09-08T00:14:53.559Z,10.77
2023-09-08T00:17:20.684Z,10.98
2023-09-08T00:19:47.842Z,13.70
2023-09-08T00:22:14.929Z,11.35
2023-09-08T00:24:42.043Z,11.10
2023-09-08T00:27:10.676Z,8.60
2023-09-08T00:29:37.882Z,9.02
2023-09-08T00:32:05.230Z,8.85
2023-09-08T00:34:32.365Z,9.10
2023-09-08T00:37:01.604Z,10.88
2023-09-08T00:39:28.847Z,9.27
2023-09-08T00:41:56.005Z,10.88
2023-09-08T00:44:23.103Z,13.18
2023-09-08T00:46:50.223Z,7.88
2023-09-08T00:49:17.883Z,11.07
2023-09-08T00:51:45.026Z,9.68
2023-09-08T00:54:12.519Z,9.57
2023-09-08T00:56:40.463Z,8.68
2023-09-08T00:59:07.820Z,8.45
2023-09-08T01:01:35.888Z,10.35
2023-09-08T01:04:03.816Z,11.38
2023-09-08T01:06:31.985Z,9.07
2023-09-08T01:08:59.200Z,9.50
2023-09-08T01:11:27.380Z,10.52
2023-09-08T01:13:54.503Z,11.65
2023-09-08T01:16:21.645Z,9.38
2023-09-08T01:18:49.739Z,10.30
2023-09-08T01:21:20.692Z,10.40
2023-09-08T01:23:50.767Z,13.17
2023-09-08T01:26:23.238Z,10.27
2023-09-08T01:28:51.420Z,9.80
2023-09-08T01:31:19.239Z,10.07
2023-09-08T01:33:47.285Z,13.13
2023-09-08T01:36:15.604Z,10.55
2023-09-08T01:38:42.752Z,10.98
2023-09-08T01:41:10.603Z,10.57
2023-09-08T01:43:37.724Z,11.45
2023-09-08T01:46:05.053Z,10.15
2023-09-08T01:48:32.383Z,11.60
2023-09-08T01:50:59.818Z,10.63
2023-09-08T01:53:26.896Z,9.10
2023-09-08T01:55:54.029Z,13.00
2023-09-08T01:58:21.254Z,11.23
2023-09-08T02:00:52.522Z,9.10
2023-09-08T02:03:19.794Z,9.88
2023-09-08T02:05:47.540Z,10.20
2023-09-08T02:08:15.898Z,11.98
2023-09-08T02:10:43.076Z,8.80
2023-09-08T02:13:10.250Z,10.95
2023-09-08T02:15:37.971Z,13.25
2023-09-08T02:18:05.447Z,12.27
2023-09-08T02:20:32.750Z,12.48
2023-09-08T02:22:59.916Z,11.23
2023-09-08T02:25:27.138Z,12.05
2023-09-08T02:27:54.346Z,12.98
2023-09-08T02:30:21.566Z,11.80
2023-09-08T02:32:48.794Z,13.98
2023-09-08T02:35:16.040Z,11.85
2023-09-08T02:37:43.232Z,15.65
2023-09-08T02:40:10.928Z,11.65
2023-09-08T02:42:38.151Z,13.35
2023-09-08T02:45:05.534Z,12.13
2023-09-08T02:47:32.637Z,14.05
2023-09-08T02:49:59.763Z,11.45
2023-09-08T02:52:26.902Z,12.38
2023-09-08T02:54:54.034Z,13.80
2023-09-08T02:57:21.328Z,12.48
2023-09-08T02:59:52.283Z,14.90
2023-09-08T03:02:19.592Z,13.60
2023-09-08T03:04:46.904Z,13.05
2023-09-08T03:07:14.099Z,15.15
2023-09-08T03:09:41.253Z,13.57
2023-09-08T03:12:08.508Z,12.32
2023-09-08T03:14:35.689Z,12.32
2023-09-08T03:17:02.880Z,14.60
2023-09-08T03:19:30.096Z,12.57
2023-09-08T03:21:57.250Z,12.00
2023-09-08T03:24:24.396Z,12.38
2023-09-08T03:26:51.517Z,16.13
2023-09-08T03:29:18.710Z,15.55
2023-09-08T03:31:45.926Z,11.68
2023-09-08T03:34:14.173Z,14.00
2023-09-08T03:36:41.332Z,14.15
2023-09-08T03:39:10.579Z,16.92
2023-09-08T03:41:37.702Z,13.23
2023-09-08T03:44:04.929Z,17.05
2023-09-08T03:46:32.167Z,16.35
2023-09-08T03:49:02.148Z,14.73
2023-09-08T03:51:30.137Z,14.00
2023-09-08T03:53:58.138Z,13.98
2023-09-08T03:56:25.410Z,15.13
2023-09-08T03:58:52.665Z,13.70
2023-09-08T04:01:19.841Z,15.43
2023-09-08T04:03:47.025Z,14.57
2023-09-08T04:06:14.214Z,14.15
2023-09-08T04:08:41.333Z,12.95
2023-09-08T04:11:08.545Z,14.38
2023-09-08T04:13:35.773Z,16.02
2023-09-08T04:16:03.107Z,13.85
2023-09-08T04:18:30.319Z,13.07
2023-09-08T04:20:57.538Z,15.23
2023-09-08T04:23:24.667Z,12.70
2023-09-08T04:25:51.770Z,16.95
2023-09-08T04:28:18.876Z,18.08
2023-09-08T04:30:45.991Z,15.43
2023-09-08T04:33:13.613Z,17.80
2023-09-08T04:35:40.810Z,15.57
2023-09-08T04:38:07.952Z,17.80
2023-09-08T04:40:35.152Z,15.93
2023-09-08T04:43:02.400Z,15.63
2023-09-08T04:45:29.592Z,17.35
2023-09-08T04:47:56.772Z,16.60
2023-09-08T04:50:23.933Z,20.40
2023-09-08T04:52:51.093Z,18.63
2023-09-08T04:55:20.559Z,19.98
2023-09-08T04:57:47.684Z,18.45
2023-09-08T05:00:15.204Z,16.98
2023-09-08T05:02:42.419Z,17.75
2023-09-08T05:05:09.671Z,17.23
2023-09-08T05:07:36.825Z,17.02
2023-09-08T05:10:04.183Z,17.10
2023-09-08T05:12:31.363Z,21.42
2023-09-08T05:15:01.352Z,14.63
2023-09-08T05:17:28.614Z,16.23
2023-09-08T05:19:55.980Z,16.88
2023-09-08T05:22:23.766Z,18.80
2023-09-08T05:24:51.647Z,15.15
2023-09-08T05:27:18.764Z,18.48
2023-09-08T05:29:45.907Z,19.38
2023-09-08T05:32:13.027Z,17.42
2023-09-08T05:34:40.299Z,18.70
2023-09-08T05:37:07.535Z,15.35
2023-09-08T05:39:34.702Z,15.15
2023-09-08T05:42:01.780Z,17.92
2023-09-08T05:44:28.961Z,17.25
2023-09-08T05:46:56.132Z,16.60
2023-09-08T05:49:23.323Z,17.67
2023-09-08T05:51:50.738Z,15.70
2023-09-08T05:54:17.906Z,18.20
2023-09-08T05:56:45.775Z,16.83
2023-09-08T05:59:12.938Z,17.15
2023-09-08T06:01:40.140Z,16.23
2023-09-08T06:04:07.565Z,13.68
2023-09-08T06:06:34.865Z,14.93
2023-09-08T06:09:02.022Z,15.15
2023-09-08T06:11:29.252Z,15.43
2023-09-08T06:14:00.336Z,15.95
2023-09-08T06:16:28.051Z,16.35
2023-09-08T06:18:55.334Z,16.88
2023-09-08T06:21:22.512Z,13.45
2023-09-08T06:23:50.358Z,15.90
2023-09-08T06:26:17.591Z,12.98
2023-09-08T06:28:45.131Z,14.13
2023-09-08T06:31:12.402Z,13.57
2023-09-08T06:33:39.696Z,10.55
2023-09-08T06:36:08.220Z,13.30
2023-09-08T06:38:36.010Z,15.13
2023-09-08T06:41:03.430Z,14.85
2023-09-08T06:43:30.530Z,14.50
2023-09-08T06:45:57.686Z,13.75
2023-09-08T06:48:24.907Z,15.18
2023-09-08T06:50:55.630Z,13.27
2023-09-08T06:53:22.855Z,13.37
2023-09-08T06:55:50.044Z,10.93
2023-09-08T06:58:17.130Z,11.20
2023-09-08T07:00:44.347Z,10.95
2023-09-08T07:03:11.787Z,11.60
2023-09-08T07:05:41.538Z,12.52
2023-09-08T07:08:08.801Z,14.20
2023-09-08T07:10:36.270Z,10.32
2023-09-08T07:13:03.487Z,12.38
2023-09-08T07:15:30.609Z,7.85
2023-09-08T07:17:57.808Z,10.80
2023-09-08T07:20:24.914Z,10.25
2023-09-08T07:22:52.145Z,7.88
2023-09-08T07:25:19.349Z,8.90
2023-09-08T07:27:46.557Z,7.95
2023-09-08T07:30:14.181Z,7.95
2023-09-08T07:32:41.454Z,7.00
2023-09-08T07:35:15.254Z,8.82
2023-09-08T07:37:42.695Z,7.20
2023-09-08T07:40:11.858Z,7.40
2023-09-08T07:42:39.104Z,5.63
2023-09-08T07:45:06.477Z,7.50
2023-09-08T07:47:33.634Z,6.10
2023-09-08T07:50:24.246Z,7.00
2023-09-08T07:52:52.009Z,5.68
2023-09-08T07:55:19.610Z,8.38
2023-09-08T07:57:47.282Z,7.97
2023-09-08T08:00:15.002Z,8.63
2023-09-08T08:02:43.513Z,6.90
2023-09-08T08:05:10.750Z,5.45
2023-09-08T08:07:37.984Z,7.97
2023-09-08T08:10:05.298Z,7.70
2023-09-08T08:12:32.449Z,5.40
2023-09-08T08:15:02.731Z,7.60
2023-09-08T08:17:31.381Z,9.05
2023-09-08T08:20:07.983Z,5.47
2023-09-08T08:22:35.575Z,5.22
2023-09-08T08:25:02.967Z,6.07
2023-09-08T08:27:32.036Z,7.30
2023-09-08T08:30:02.600Z,6.25
2023-09-08T08:34:58.063Z,5.38
2023-09-08T08:37:25.375Z,4.93
2023-09-08T08:39:52.655Z,5.45
2023-09-08T08:42:23.379Z,8.65
2023-09-08T08:44:51.627Z,6.35
2023-09-08T08:47:19.751Z,7.15
2023-09-08T08:49:47.886Z,7.13
2023-09-08T08:52:16.489Z,7.20
2023-09-08T08:54:43.951Z,5.75
2023-09-08T08:57:11.319Z,5.78
2023-09-08T08:59:38.549Z,5.80
2023-09-08T09:02:05.917Z,6.72
2023-09-08T09:04:33.164Z,5.45
2023-09-08T09:07:01.867Z,4.82
2023-09-08T09:09:30.089Z,6.22
2023-09-08T09:11:57.202Z,4.97
2023-09-08T09:14:24.489Z,5.78
2023-09-08T09:16:51.891Z,5.18
2023-09-08T09:19:26.486Z,5.30
2023-09-08T09:21:55.624Z,5.57
2023-09-08T09:24:38.085Z,6.53
2023-09-08T09:27:06.762Z,5.45
2023-09-08T09:29:35.393Z,6.45
2023-09-08T09:32:09.797Z,7.60
2023-09-08T09:34:37.008Z,7.15
2023-09-08T09:37:06.432Z,5.20
2023-09-08T09:39:33.629Z,7.77
2023-09-08T09:42:01.129Z,5.65
2023-09-08T09:44:28.393Z,5.75
2023-09-08T09:46:55.912Z,7.38
2023-09-08T09:49:24.148Z,7.10
2023-09-08T09:51:52.184Z,5.30
2023-09-08T09:54:19.321Z,5.47
2023-09-08T09:56:49.658Z,7.40
2023-09-08T09:59:18.167Z,4.75
2023-09-08T10:01:45.509Z,5.85
2023-09-08T10:04:12.680Z,8.30
2023-09-08T10:06:41.029Z,4.43
2023-09-08T10:09:16.420Z,5.43
2023-09-08T10:11:46.254Z,4.88
2023-09-08T10:14:14.197Z,5.00
2023-09-08T10:16:42.305Z,4.90
2023-09-08T10:19:10.668Z,6.07
2023-09-08T10:21:50.332Z,5.03
2023-09-08T10:24:23.872Z,5.25
2023-09-08T10:27:14.211Z,6.25
2023-09-08T10:32:10.151Z,6.47
2023-09-08T10:34:37.919Z,5.43
2023-09-08T10:37:05.273Z,5.53
2023-09-08T10:39:40.275Z,4.10
2023-09-08T10:42:20.236Z,5.13
2023-09-08T10:44:50.812Z,5.75
2023-09-08T10:47:21.663Z,5.57
2023-09-08T10:49:48.781Z,4.68
2023-09-08T10:52:17.744Z,6.68
2023-09-08T10:54:51.697Z,5.03
2023-09-08T10:57:19.998Z,4.13
2023-09-08T10:59:50.698Z,3.38
2023-09-08T11:02:34.702Z,7.60
2023-09-08T11:05:02.161Z,4.72
2023-09-08T11:07:29.993Z,5.90
2023-09-08T11:09:57.122Z,6.20
2023-09-08T11:12:25.605Z,4.70
2023-09-08T11:14:52.781Z,4.32
2023-09-08T11:17:19.933Z,3.97
2023-09-08T11:19:47.209Z,3.30
2023-09-08T11:22:14.534Z,10.40
2023-09-08T11:24:43.480Z,4.60
2023-09-08T11:27:11.423Z,3.45
2023-09-08T11:29:41.429Z,4.00
2023-09-08T11:34:36.676Z,4.13
2023-09-08T11:37:10.885Z,5.10
2023-09-08T11:39:39.582Z,3.88
2023-09-08T11:42:07.033Z,4.00
2023-09-08T11:44:34.795Z,3.65
2023-09-08T11:47:03.099Z,4.65
2023-09-08T11:49:39.812Z,3.63
2023-09-08T11:52:07.414Z,3.60
2023-09-08T11:54:36.262Z,5.20
2023-09-08T11:57:07.623Z,3.67
2023-09-08T11:59:35.937Z,3.47
2023-09-08T12:02:03.116Z,4.70
2023-09-08T12:04:30.284Z,3.35
2023-09-08T12:06:57.447Z,4.43
2023-09-08T12:09:24.876Z,3.40
2023-09-08T12:11:52.217Z,5.57
2023-09-08T12:14:19.349Z,3.63
2023-09-08T12:16:47.199Z,3.65
2023-09-08T12:19:31.149Z,3.38
2023-09-08T12:21:59.378Z,3.80
2023-09-08T12:24:45.181Z,3.78
2023-09-08T12:27:12.330Z,3.47
2023-09-08T12:29:39.502Z,3.45
2023-09-08T12:32:06.906Z,3.30
2023-09-08T12:34:34.043Z,5.03
2023-09-08T12:37:01.217Z,3.10
2023-09-08T12:39:28.367Z,5.85
2023-09-08T12:41:56.175Z,4.00
2023-09-08T12:44:23.369Z,4.45
2023-09-08T12:46:50.548Z,2.63
2023-09-08T12:49:17.722Z,4.50
2023-09-08T12:51:45.769Z,3.13
2023-09-08T12:54:12.964Z,4.38
2023-09-08T12:56:40.066Z,3.85
2023-09-08T12:59:07.403Z,3.25
2023-09-08T13:01:34.605Z,3.95
2023-09-08T13:04:02.437Z,3.63
2023-09-08T13:06:29.661Z,3.47
2023-09-08T13:08:56.768Z,3.60
2023-09-08T13:11:24.418Z,4.15
2023-09-08T13:13:51.527Z,3.38
2023-09-08T13:16:18.767Z,3.35
2023-09-08T13:18:46.277Z,5.20
2023-09-08T13:21:13.530Z,3.40
2023-09-08T13:23:40.832Z,5.05
2023-09-08T13:26:07.939Z,3.55
2023-09-08T13:28:35.258Z,7.18
2023-09-08T13:31:02.625Z,4.63
2023-09-08T13:33:30.996Z,5.15
2023-09-08T13:35:58.284Z,4.22
2023-09-08T13:38:25.569Z,4.15
2023-09-08T13:40:53.964Z,3.15
2023-09-08T13:43:21.164Z,4.63
2023-09-08T13:45:48.290Z,4.60
2023-09-08T13:48:16.866Z,4.57
2023-09-08T13:50:44.806Z,4.47
2023-09-08T13:53:14.403Z,4.53
2023-09-08T13:55:43.768Z,6.13
2023-09-08T13:58:11.897Z,4.72
2023-09-08T14:00:44.961Z,7.18
2023-09-08T14:03:14.348Z,3.88
2023-09-08T14:05:46.180Z,5.40
2023-09-08T14:08:18.262Z,4.07
2023-09-08T14:10:52.529Z,5.28
2023-09-08T14:13:20.786Z,4.50
2023-09-08T14:15:48.153Z,4.30
2023-09-08T14:18:15.658Z,3.90
2023-09-08T14:20:43.229Z,5.35
2023-09-08T14:23:10.470Z,7.72
2023-09-08T14:25:37.575Z,5.35
2023-09-08T14:28:06.913Z,4.30
2023-09-08T14:30:35.919Z,5.07
2023-09-08T14:33:04.005Z,6.05
2023-09-08T14:35:31.303Z,7.10
2023-09-08T14:37:58.474Z,4.72
2023-09-08T14:40:25.750Z,4.03
2023-09-08T14:42:54.640Z,4.32
2023-09-08T14:45:22.190Z,3.65
2023-09-08T14:47:49.400Z,5.55
2023-09-08T14:50:16.948Z,5.78
2023-09-08T14:52:44.113Z,4.90
2023-09-08T14:55:11.187Z,7.07
2023-09-08T14:57:38.399Z,3.83
2023-09-08T15:00:05.939Z,4.72
2023-09-08T15:02:33.487Z,5.60
2023-09-08T15:05:00.636Z,6.45
2023-09-08T15:07:27.782Z,4.50
2023-09-08T15:09:54.990Z,4.15
2023-09-08T15:12:22.209Z,3.80
2023-09-08T15:14:49.380Z,3.60
2023-09-08T15:17:18.054Z,4.75
2023-09-08T15:19:45.222Z,3.67
2023-09-08T15:22:14.002Z,4.18
2023-09-08T15:24:41.279Z,5.22
2023-09-08T15:27:08.616Z,3.25
2023-09-08T15:29:35.808Z,4.03
2023-09-08T15:32:04.358Z,5.13
2023-09-08T15:34:31.476Z,4.90
2023-09-08T15:36:58.610Z,3.70
2023-09-08T15:39:25.879Z,4.55
2023-09-08T15:41:52.981Z,4.97
2023-09-08T15:44:20.198Z,3.78
2023-09-08T15:46:47.382Z,3.67
2023-09-08T15:49:14.712Z,4.10
2023-09-08T15:51:42.010Z,5.28
2023-09-08T15:54:09.226Z,4.85
2023-09-08T15:56:36.584Z,5.03
2023-09-08T15:59:03.725Z,7.05
2023-09-08T16:01:31.023Z,3.97
2023-09-08T16:03:58.484Z,4.68
2023-09-08T16:06:25.828Z,4.68
2023-09-08T16:08:53.067Z,4.05
2023-09-08T16:11:20.330Z,3.83
2023-09-08T16:13:47.509Z,4.53
2023-09-08T16:16:14.687Z,3.97
2023-09-08T16:18:41.827Z,4.75
2023-09-08T16:21:08.982Z,6.05
2023-09-08T16:23:36.369Z,4.82
2023-09-08T16:26:04.017Z,4.30
2023-09-08T16:28:31.233Z,4.22
2023-09-08T16:30:58.524Z,3.85
2023-09-08T16:33:25.669Z,3.42
2023-09-08T16:35:55.196Z,5.82
2023-09-08T16:38:22.340Z,4.00
2023-09-08T16:40:49.480Z,4.28
2023-09-08T16:43:19.725Z,4.82
2023-09-08T16:45:46.873Z,3.88
2023-09-08T16:48:14.794Z,4.38
2023-09-08T16:50:41.911Z,4.50
2023-09-08T16:53:09.438Z,4.53
2023-09-08T16:55:36.802Z,5.13
2023-09-08T16:58:03.994Z,7.55
2023-09-08T17:00:31.192Z,4.32
2023-09-08T17:02:58.571Z,6.40
2023-09-08T17:05:25.822Z,3.90
2023-09-08T17:07:57.422Z,3.58
2023-09-08T17:10:24.929Z,3.92
2023-09-08T17:12:52.090Z,6.90
2023-09-08T17:15:19.262Z,5.18
2023-09-08T17:17:46.529Z,7.32
2023-09-08T17:20:14.054Z,6.13
2023-09-08T17:22:41.294Z,6.00
2023-09-08T17:25:08.672Z,5.30
2023-09-08T17:27:35.772Z,7.05
2023-09-08T17:30:02.875Z,5.70
2023-09-08T17:32:30.064Z,5.57
2023-09-08T17:34:57.768Z,6.72
2023-09-08T17:37:24.945Z,6.35
2023-09-08T17:39:52.087Z,7.32
2023-09-08T17:42:19.342Z,7.00
2023-09-08T17:44:46.468Z,4.75
2023-09-08T17:47:13.615Z,7.40
2023-09-08T17:49:40.787Z,5.93
2023-09-08T17:52:07.901Z,5.45
2023-09-08T17:54:35.178Z,5.47
2023-09-08T17:57:02.573Z,6.15
2023-09-08T17:59:29.723Z,5.25
2023-09-08T18:01:56.990Z,7.22
2023-09-08T18:04:24.254Z,7.53
2023-09-08T18:06:51.544Z,8.60
2023-09-08T18:09:18.867Z,10.93
2023-09-08T18:11:46.227Z,16.48
2023-09-08T18:14:14.037Z,19.98
2023-09-08T18:16:41.230Z,21.60
2023-09-08T18:19:08.480Z,14.63
2023-09-08T18:21:35.666Z,13.60
2023-09-08T18:24:02.840Z,8.23
2023-09-08T18:26:30.076Z,6.22
2023-09-08T18:28:57.288Z,7.65
2023-09-08T18:31:26.846Z,10.98
2023-09-08T18:33:54.159Z,8.35
2023-09-08T18:36:21.301Z,10.23
2023-09-08T18:38:48.544Z,9.02
2023-09-08T18:41:15.713Z,8.80
2023-09-08T18:43:42.860Z,8.18
2023-09-08T18:46:10.102Z,7.00
2023-09-08T18:48:38.732Z,7.60
2023-09-08T18:51:06.022Z,6.50
2023-09-08T18:53:33.803Z,7.78
2023-09-08T18:56:04.684Z,7.68
2023-09-08T18:58:34.056Z,9.75
2023-09-08T19:01:05.601Z,7.28
2023-09-08T19:03:33.008Z,8.73
2023-09-08T19:06:00.536Z,7.97
2023-09-08T19:08:29.009Z,10.07
2023-09-08T19:11:00.194Z,8.07
2023-09-08T19:13:27.494Z,11.57
2023-09-08T19:15:54.644Z,8.25
2023-09-08T19:18:22.028Z,8.18
2023-09-08T19:20:49.211Z,8.38
2023-09-08T19:23:16.346Z,10.77
2023-09-08T19:25:43.525Z,9.93
2023-09-08T19:28:12.415Z,8.32
2023-09-08T19:30:39.933Z,8.57
2023-09-08T19:33:07.656Z,8.48
2023-09-08T19:35:35.651Z,11.18
2023-09-08T19:38:03.658Z,12.40
2023-09-08T19:40:31.017Z,10.95
2023-09-08T19:42:58.251Z,10.13
2023-09-08T19:45:25.625Z,8.88
2023-09-08T19:47:52.959Z,9.95
2023-09-08T19:50:20.295Z,10.02
2023-09-08T19:52:47.424Z,14.43
2023-09-08T19:55:14.539Z,11.30
2023-09-08T19:57:41.662Z,14.52
2023-09-08T20:00:09.225Z,12.48
2023-09-08T20:02:36.386Z,12.77
2023-09-08T20:05:03.633Z,10.98
2023-09-08T20:07:30.790Z,13.20
2023-09-08T20:09:57.872Z,11.75
2023-09-08T20:12:25.137Z,11.38
2023-09-08T20:14:52.591Z,12.68
2023-09-08T20:17:19.990Z,11.00
2023-09-08T20:19:47.143Z,12.13
2023-09-08T20:22:14.262Z,14.60
2023-09-08T20:24:42.920Z,12.10
2023-09-08T20:27:11.711Z,12.60
2023-09-08T20:29:39.335Z,9.50
2023-09-08T20:32:08.284Z,12.68
2023-09-08T20:34:35.509Z,12.73
2023-09-08T20:37:03.027Z,13.10
2023-09-08T20:39:30.266Z,12.70
2023-09-08T20:41:57.523Z,10.05
2023-09-08T20:44:24.799Z,10.23
2023-09-08T20:46:51.952Z,11.25
2023-09-08T20:49:19.104Z,13.10
2023-09-08T20:51:46.217Z,11.30
2023-09-08T20:54:13.324Z,12.05
2023-09-08T20:56:40.744Z,12.70
2023-09-08T20:59:07.860Z,10.40
2023-09-08T21:01:35.120Z,11.80
2023-09-08T21:04:02.296Z,13.18
2023-09-08T21:06:29.601Z,13.88
2023-09-08T21:08:56.757Z,10.35
2023-09-08T21:11:23.922Z,13.40
2023-09-08T21:13:51.003Z,12.05
2023-09-08T21:16:18.196Z,14.38
2023-09-08T21:18:45.310Z,11.73
2023-09-08T21:21:12.404Z,12.68
2023-09-08T21:23:40.877Z,11.18
2023-09-08T21:26:08.176Z,12.48
2023-09-08T21:28:35.354Z,12.73
2023-09-08T21:31:08.603Z,14.38
2023-09-08T21:33:38.254Z,11.90
2023-09-08T21:36:06.289Z,11.48
2023-09-08T21:38:33.760Z,11.88
2023-09-08T21:41:06.870Z,14.55
2023-09-08T21:43:34.666Z,13.90
2023-09-08T21:46:05.976Z,15.27
2023-09-08T21:48:33.189Z,12.20
2023-09-08T21:51:00.450Z,10.77
2023-09-08T21:53:27.786Z,14.55
2023-09-08T21:55:54.926Z,13.88
2023-09-08T21:58:22.111Z,15.25
2023-09-08T22:00:49.303Z,14.77
2023-09-08T22:03:16.624Z,15.60
2023-09-08T22:05:43.927Z,19.45
2023-09-08T22:08:11.112Z,17.58
2023-09-08T22:10:38.282Z,14.52
2023-09-08T22:13:05.463Z,15.98
2023-09-08T22:15:32.805Z,17.65
2023-09-08T22:18:00.018Z,17.83
2023-09-08T22:20:27.560Z,18.25
2023-09-08T22:22:54.767Z,18.13
2023-09-08T22:25:22.066Z,18.63
2023-09-08T22:27:49.897Z,20.05
2023-09-08T22:30:19.055Z,21.75
2023-09-08T22:32:46.300Z,17.45
2023-09-08T22:35:13.527Z,17.27
2023-09-08T22:37:40.691Z,18.83
2023-09-08T22:40:09.971Z,19.65
2023-09-08T22:42:37.237Z,16.73
2023-09-08T22:45:06.153Z,20.15
2023-09-08T22:47:33.526Z,17.75
2023-09-08T22:50:02.145Z,18.40
2023-09-08T22:52:29.634Z,18.00
2023-09-08T22:55:05.707Z,18.27
2023-09-08T22:57:40.091Z,19.65
2023-09-08T23:00:07.777Z,15.60
2023-09-08T23:02:35.280Z,20.25
2023-09-08T23:05:02.534Z,19.65
2023-09-08T23:07:29.826Z,18.30
2023-09-08T23:09:56.973Z,21.15
2023-09-08T23:12:24.094Z,17.85
2023-09-08T23:14:54.745Z,18.10
2023-09-08T23:17:22.469Z,18.27
2023-09-08T23:19:49.624Z,18.45
2023-09-08T23:22:16.975Z,17.88
2023-09-08T23:24:44.139Z,19.35
2023-09-08T23:27:11.369Z,17.38
2023-09-08T23:29:38.490Z,21.98
2023-09-08T23:32:05.900Z,20.73
2023-09-08T23:34:34.521Z,23.73
2023-09-08T23:37:01.761Z,24.13
2023-09-08T23:39:28.908Z,24.08
2023-09-08T23:41:56.019Z,23.95
2023-09-08T23:44:23.724Z,24.92
2023-09-08T23:46:50.928Z,22.17
2023-09-08T23:49:18.124Z,28.95
2023-09-08T23:51:45.270Z,32.70
2023-09-08T23:54:12.397Z,29.88
2023-09-08T23:56:39.571Z,31.70
2023-09-08T23:59:06.916Z,29.08
